createdAt,value
2018-07-31T00:00:36.834Z,23.65
2018-07-31T00:06:10.044Z,23.58
2018-07-31T00:11:43.328Z,23.76
2018-07-31T00:17:16.484Z,23.71
2018-07-31T00:22:49.836Z,23.83
2018-07-31T00:28:23.194Z,23.87
2018-07-31T00:33:56.292Z,24.05
2018-07-31T00:39:29.345Z,24.07
2018-07-31T00:45:02.601Z,24.10
2018-07-31T00:50:35.565Z,24.24
2018-07-31T00:56:08.607Z,24.29
2018-07-31T01:01:41.646Z,24.20
2018-07-31T01:07:14.854Z,24.14
2018-07-31T01:12:48.071Z,24.04
2018-07-31T01:18:21.285Z,23.98
2018-07-31T01:23:54.439Z,23.89
2018-07-31T01:29:31.092Z,23.70
2018-07-31T01:35:04.302Z,23.60
2018-07-31T01:40:37.709Z,23.52
2018-07-31T01:46:10.851Z,23.40
2018-07-31T01:51:43.908Z,23.24
2018-07-31T01:57:16.861Z,23.24
2018-07-31T02:02:50.091Z,23.19
2018-07-31T02:08:23.200Z,22.97
2018-07-31T02:13:56.496Z,22.92
2018-07-31T02:19:29.609Z,22.87
2018-07-31T02:25:02.816Z,22.80
2018-07-31T02:30:35.851Z,22.71
2018-07-31T02:36:08.960Z,22.59
2018-07-31T02:41:42.138Z,22.46
2018-07-31T02:47:15.196Z,22.43
2018-07-31T02:52:48.611Z,22.44
2018-07-31T02:58:21.787Z,22.38
2018-07-31T03:03:54.998Z,22.27
2018-07-31T03:09:28.417Z,22.17
2018-07-31T03:15:01.649Z,22.07
2018-07-31T03:20:34.792Z,22.09
2018-07-31T03:26:07.997Z,22.04
2018-07-31T03:31:41.456Z,21.95
2018-07-31T03:37:14.572Z,21.79
2018-07-31T03:42:47.871Z,21.66
2018-07-31T03:48:21.382Z,21.60
2018-07-31T03:53:54.486Z,21.48
2018-07-31T03:59:27.911Z,21.41
